Egypt, Mississippi
Current Conditions -  °F | °C
As of 3:35 PM on Friday 24 Oct 2014 (Local Time) from KM40 Reporting Station
Clear Clear  
Wind Chill: 77°   Ceiling: Unl
Heat Index: 79°   Visibility: 10mi
Dew Point: 61°   Wind: 7mph
Humidity: 57%   Direction: 320°NW
Pressure: 30.08"   Gusts: NA
Location:  33.9759°N, 88.8037°W
Report Text: KM40 242035Z AUTO 32006KT 10SM CLR 25/16 A3008 RMK AO2
Loading
Personal Weather Stations






























Interactive Weather Map
Tropical Storm Tracking
New forecast layout! Learn more

10-Day Weather Forecast

Advertisements
Track Severe Weather on mobile